Time;durP1;ratioP1;P1;durP2;ratioP2;P2;SDS_P1;SDS_P2;PMS_P1;PMS_P2;Temp;Humidity;BMP_temperature;BMP_pressure;BME280_temperature;BME280_humidity;BME280_pressure;Samples;Min_cycle;Max_cycle;Signal;HPM_P1;HPM_P2
2024/03/26 00:02:05;;;;;;;3.90;1.90;;;;;;;2.95;69.18;97926.52;104808;1273;72979;-28
2024/03/26 00:04:33;;;;;;;4.30;2.00;;;;;;;3.09;69.12;97933.24;104807;1272;74354;-28
2024/03/26 00:14:35;;;;;;;3.30;2.10;;;;;;;4.38;65.22;97934.16;102662;1292;599340;-25
2024/03/26 00:17:03;;;;;;;2.30;1.70;;;;;;;4.05;66.28;97934.67;104799;1269;61267;-26
2024/03/26 00:19:30;;;;;;;2.60;1.80;;;;;;;3.84;67.02;97938.09;104780;1265;61111;-27
2024/03/26 00:21:58;;;;;;;3.50;2.30;;;;;;;3.47;67.97;97937.02;104851;1266;72997;-28
2024/03/26 00:32:06;;;;;;;2.60;1.60;;;;;;;2.49;71.13;97931.46;102701;1293;599336;-27
2024/03/26 00:42:13;;;;;;;4.70;1.70;;;;;;;4.23;66.69;97941.44;102682;1292;598935;-26
2024/03/26 00:44:40;;;;;;;3.60;2.40;;;;;;;3.88;67.47;97939.64;104782;1269;61183;-27
2024/03/26 00:54:48;;;;;;;3.70;2.20;;;;;;;2.54;72.13;97939.89;102681;1292;599338;-26
2024/03/26 00:57:15;;;;;;;2.20;1.70;;;;;;;2.33;73.75;97944.14;104805;1267;61190;-29
2024/03/26 01:07:22;;;;;;;4.10;2.60;;;;;;;3.73;68.76;97946.02;102871;1292;599945;-28
2024/03/26 01:09:49;;;;;;;3.10;1.80;;;;;;;3.40;69.01;97942.64;104855;1266;61186;-28
2024/03/26 01:12:17;;;;;;;3.90;2.40;;;;;;;3.12;69.85;97943.89;104833;1267;61130;-28
2024/03/26 01:14:45;;;;;;;4.40;2.70;;;;;;;3.13;71.00;97943.45;105074;1267;71754;-26
2024/03/26 01:17:12;;;;;;;4.20;1.70;;;;;;;2.73;72.49;97943.91;105091;1266;73057;-26
2024/03/26 01:19:40;;;;;;;4.10;2.10;;;;;;;3.10;71.82;97945.04;104785;1272;72678;-26
2024/03/26 01:22:08;;;;;;;4.20;3.00;;;;;;;3.74;69.10;97942.90;104792;1269;232001;-26
2024/03/26 01:24:35;;;;;;;2.70;2.40;;;;;;;3.86;68.48;97947.02;105218;1260;61161;-26
2024/03/26 01:27:03;;;;;;;4.70;3.10;;;;;;;3.76;68.11;97946.69;105237;1266;73009;-26
2024/03/26 01:29:30;;;;;;;3.20;2.50;;;;;;;3.52;68.15;97946.30;105221;1261;74347;-26
2024/03/26 01:39:42;;;;;;;3.60;1.80;;;;;;;2.17;74.48;97962.63;102673;1292;600186;-26
2024/03/26 01:49:43;;;;;;;3.50;2.40;;;;;;;3.62;69.12;97963.79;102724;1292;599412;-26
2024/03/26 01:52:10;;;;;;;4.30;2.20;;;;;;;3.35;69.41;97968.95;104829;1266;61062;-27
2024/03/26 01:54:39;;;;;;;4.00;2.70;;;;;;;3.10;69.85;97973.51;104821;1271;61128;-26
2024/03/26 01:57:06;;;;;;;3.00;2.40;;;;;;;2.85;70.65;97976.71;104855;1270;71869;-26
2024/03/26 01:59:34;;;;;;;2.90;1.80;;;;;;;2.60;71.50;97979.92;104804;1266;74313;-27
2024/03/26 02:02:01;;;;;;;3.10;2.00;;;;;;;2.31;72.19;97988.10;104742;1266;71909;-26
2024/03/26 02:12:09;;;;;;;2.60;2.20;;;;;;;3.36;69.73;97991.67;102655;1292;598686;-25
2024/03/26 02:14:36;;;;;;;2.40;1.90;;;;;;;3.13;70.60;97993.92;104791;1269;61231;-27
2024/03/26 02:17:04;;;;;;;3.80;2.80;;;;;;;2.89;71.35;97999.91;104903;1267;61165;-28
2024/03/26 02:19:32;;;;;;;7.70;2.60;;;;;;;2.67;72.27;98000.04;104811;1266;73010;-28
2024/03/26 02:21:59;;;;;;;3.00;2.20;;;;;;;2.39;73.32;98000.44;104805;1266;74321;-28
2024/03/26 02:24:30;;;;;;;7.00;3.00;;;;;;;2.84;73.13;98003.52;104827;1266;72476;-28
2024/03/26 02:26:59;;;;;;;5.50;3.10;;;;;;;3.61;70.90;98005.23;104836;1269;206532;-28
2024/03/26 02:29:26;;;;;;;9.50;2.80;;;;;;;3.75;69.42;98011.50;104886;1268;61120;-28
2024/03/26 02:31:54;;;;;;;11.90;3.50;;;;;;;3.58;69.75;98012.77;105126;1268;73019;-28
2024/03/26 02:34:21;;;;;;;4.00;2.70;;;;;;;3.35;70.07;98016.05;105076;1268;73156;-28
2024/03/26 02:36:49;;;;;;;6.00;2.90;;;;;;;3.07;71.29;98018.30;104973;1263;71681;-28
2024/03/26 02:39:16;;;;;;;6.10;3.10;;;;;;;2.89;71.83;98022.09;105137;1266;60984;-28
2024/03/26 02:41:44;;;;;;;10.10;4.80;;;;;;;2.65;72.62;98024.46;105112;1263;61039;-28
2024/03/26 02:51:52;;;;;;;6.40;3.10;;;;;;;3.86;68.76;98029.09;102742;1291;598916;-27
2024/03/26 02:54:20;;;;;;;4.80;2.50;;;;;;;3.63;69.41;98033.09;104836;1270;61113;-28
2024/03/26 02:56:47;;;;;;;4.90;3.30;;;;;;;3.39;70.35;98034.04;105283;1263;61173;-28
2024/03/26 02:59:15;;;;;;;5.60;3.30;;;;;;;3.10;70.69;98039.52;105631;1260;73013;-28
2024/03/26 03:01:44;;;;;;;6.40;3.00;;;;;;;2.85;70.77;98041.71;105614;1263;73339;-28
2024/03/26 03:04:12;;;;;;;5.60;3.50;;;;;;;3.01;69.79;98044.12;105664;1260;72648;-28
2024/03/26 03:14:22;;;;;;;3.20;2.80;;;;;;;4.13;65.80;98061.38;102701;1293;600135;-25
2024/03/26 03:16:49;;;;;;;6.20;3.60;;;;;;;3.90;66.29;98066.95;104853;1269;62694;-26
2024/03/26 03:19:17;;;;;;;5.50;3.80;;;;;;;3.75;67.99;98069.02;104874;1265;61228;-26
2024/03/26 03:21:45;;;;;;;5.80;3.30;;;;;;;3.67;68.10;98070.22;104844;1270;72987;-27
2024/03/26 03:24:12;;;;;;;3.70;3.10;;;;;;;3.55;68.58;98076.03;105166;1264;74303;-28
2024/03/26 03:26:40;;;;;;;5.80;3.50;;;;;;;3.43;68.54;98084.19;105180;1263;71394;-28
2024/03/26 03:29:07;;;;;;;3.00;2.40;;;;;;;3.22;68.98;98085.94;102858;1268;3169672;-28
2024/03/26 03:31:35;;;;;;;3.90;2.70;;;;;;;3.67;68.67;98089.08;105205;1265;61172;-28
2024/03/26 03:41:47;;;;;;;5.80;3.30;;;;;;;3.75;67.37;98087.19;102583;1293;600141;-25
2024/03/26 03:51:51;;;;;;;2.70;1.80;;;;;;;2.61;68.71;98111.46;102595;1295;600274;-27
2024/03/26 03:54:19;;;;;;;6.50;2.10;;;;;;;2.14;70.95;98116.11;105044;1267;61180;-28
2024/03/26 03:56:47;;;;;;;2.90;2.20;;;;;;;2.68;71.23;98120.42;104815;1272;61203;-28
2024/03/26 03:59:14;;;;;;;5.10;2.70;;;;;;;3.57;68.99;98121.20;104812;1270;73015;-28
2024/03/26 04:01:42;;;;;;;8.70;3.40;;;;;;;3.83;68.05;98122.71;104779;1272;74546;-28
2024/03/26 04:11:53;;;;;;;6.10;2.60;;;;;;;2.79;70.21;98140.14;102539;1292;600113;-25
2024/03/26 04:22:04;;;;;;;12.20;3.50;;;;;;;3.95;68.01;98142.99;102638;1290;600281;-26
2024/03/26 04:24:31;;;;;;;5.20;3.00;;;;;;;4.18;66.12;98147.08;104786;1270;61808;-26
2024/03/26 04:26:59;;;;;;;5.40;3.30;;;;;;;3.98;65.53;98153.09;104831;1270;61050;-26
2024/03/26 04:29:26;;;;;;;6.60;3.60;;;;;;;3.68;65.72;98160.63;104916;1269;71755;-26
2024/03/26 04:31:54;;;;;;;3.70;2.50;;;;;;;3.34;66.15;98167.63;104878;1270;73987;-25
2024/03/26 04:34:22;;;;;;;7.50;2.80;;;;;;;3.05;67.34;98163.71;104791;1273;72520;-28
2024/03/26 04:36:59;;;;;;;4.50;2.70;;;;;;;2.77;68.52;98162.55;101453;1270;4689865;-28
2024/03/26 04:47:14;;;;;;;6.10;3.10;;;;;;;3.72;69.21;98176.16;102583;1292;600307;-26
2024/03/26 04:49:42;;;;;;;5.80;3.70;;;;;;;4.04;67.83;98176.05;104825;1270;61240;-26
2024/03/26 04:52:09;;;;;;;4.70;3.50;;;;;;;4.03;67.35;98179.88;104794;1266;61148;-26
2024/03/26 04:54:37;;;;;;;5.70;3.70;;;;;;;3.96;67.51;98179.02;104809;1266;73504;-26
2024/03/26 05:04:42;;;;;;;4.40;2.90;;;;;;;3.66;68.25;98193.90;103103;1286;600320;-27
2024/03/26 05:07:09;;;;;;;3.60;2.20;;;;;;;3.62;68.51;98197.38;105042;1265;61882;-28
2024/03/26 05:09:37;;;;;;;4.00;2.70;;;;;;;4.34;68.38;98196.30;104828;1265;61097;-26
2024/03/26 05:19:49;;;;;;;9.30;4.20;;;;;;;5.76;63.45;98208.02;102666;1294;600053;-25
2024/03/26 05:22:16;;;;;;;10.20;3.40;;;;;;;5.72;63.30;98213.64;105020;1270;61065;-29
2024/03/26 05:32:32;;;;;;;5.90;3.30;;;;;;;5.15;66.55;98221.80;102572;1293;600477;-25
2024/03/26 05:35:01;;;;;;;6.50;3.60;;;;;;;5.43;67.05;98224.79;104902;1269;61202;-25
2024/03/26 05:37:29;;;;;;;6.80;4.20;;;;;;;6.05;65.09;98227.64;104797;1266;61180;-25
2024/03/26 05:39:56;;;;;;;8.80;3.70;;;;;;;6.31;64.19;98228.58;104828;1267;73071;-25
2024/03/26 05:42:24;;;;;;;5.60;3.90;;;;;;;6.43;64.21;98227.88;105178;1263;74290;-27
2024/03/26 05:52:33;;;;;;;9.40;3.90;;;;;;;6.07;66.06;98242.59;103613;1287;600515;-25
2024/03/26 05:55:01;;;;;;;5.20;3.70;;;;;;;6.03;65.84;98246.24;105023;1270;61292;-25
2024/03/26 05:57:28;;;;;;;6.00;3.90;;;;;;;6.00;65.67;98250.59;104820;1267;61135;-25
2024/03/26 05:59:56;;;;;;;6.50;3.90;;;;;;;5.92;65.56;98254.42;104799;1267;73135;-26
2024/03/26 06:02:24;;;;;;;6.80;3.10;;;;;;;5.69;66.41;98257.98;105634;1254;74355;-26
2024/03/26 06:12:33;;;;;;;5.90;4.20;;;;;;;6.60;62.58;98278.27;102919;1290;599481;-26
2024/03/26 06:15:01;;;;;;;7.70;4.40;;;;;;;6.33;63.50;98277.08;105086;1268;61537;-25
2024/03/26 06:17:29;;;;;;;4.90;3.10;;;;;;;6.22;64.15;98278.08;104802;1272;61141;-25
2024/03/26 06:19:56;;;;;;;6.10;4.20;;;;;;;6.00;65.48;98277.63;104834;1271;73040;-25
2024/03/26 06:22:24;;;;;;;9.50;4.80;;;;;;;5.90;66.21;98278.31;104833;1270;74426;-27
2024/03/26 06:24:53;;;;;;;6.00;4.40;;;;;;;5.54;67.41;98273.86;104796;1271;72675;-27
2024/03/26 06:27:20;;;;;;;5.80;3.80;;;;;;;5.44;69.01;98278.55;101416;1270;4656495;-27
2024/03/26 06:36:18;;;;;;;7.50;4.10;;;;;;;6.66;66.06;98291.92;102665;1294;600248;-26
2024/03/26 06:38:45;;;;;;;6.20;3.50;;;;;;;6.67;65.73;98292.42;104818;1269;61197;-26
2024/03/26 06:41:13;;;;;;;4.90;3.70;;;;;;;6.63;65.90;98291.98;104827;1265;61195;-26
2024/03/26 06:43:40;;;;;;;4.70;2.80;;;;;;;6.79;65.31;98295.65;104797;1272;73022;-26
2024/03/26 06:46:08;;;;;;;8.80;4.50;;;;;;;6.72;64.47;98300.45;104928;1263;74360;-26
2024/03/26 06:48:37;;;;;;;6.70;4.20;;;;;;;7.03;64.08;98302.61;105093;1263;74851;-26
2024/03/26 06:51:05;;;;;;;6.10;3.70;;;;;;;7.14;64.28;98306.70;102063;1260;4454820;-26
2024/03/26 06:53:33;;;;;;;9.50;5.20;;;;;;;7.35;64.54;98314.17;105312;1260;61022;-27
2024/03/26 06:56:00;;;;;;;8.70;4.70;;;;;;;7.46;63.70;98311.48;105310;1266;74832;-27
2024/03/26 06:58:29;;;;;;;8.90;5.30;;;;;;;7.45;62.74;98318.81;105598;1260;73170;-26
2024/03/26 07:00:56;;;;;;;5.10;3.00;;;;;;;7.42;63.04;98318.30;105485;1257;70497;-26
2024/03/26 07:03:24;;;;;;;4.50;3.30;;;;;;;7.41;62.90;98321.48;105248;1262;61118;-26
2024/03/26 07:05:52;;;;;;;11.00;4.20;;;;;;;7.61;63.88;98319.21;105589;1263;62540;-27
2024/03/26 07:08:20;;;;;;;5.60;4.30;;;;;;;7.69;62.56;98323.94;105366;1258;75923;-27
2024/03/26 07:10:51;;;;;;;6.40;3.60;;;;;;;7.82;61.61;98324.64;105463;1257;77105;-27
2024/03/26 07:13:19;;;;;;;6.40;3.90;;;;;;;8.11;61.11;98323.85;105225;1257;74390;-27
2024/03/26 07:15:47;;;;;;;6.60;3.60;;;;;;;8.00;60.60;98324.00;105599;1257;61911;-27
2024/03/26 07:18:15;;;;;;;5.40;3.90;;;;;;;8.37;60.63;98321.83;105534;1263;64063;-27
2024/03/26 07:20:42;;;;;;;8.30;3.30;;;;;;;8.47;59.60;98323.79;105560;1257;76317;-27
2024/03/26 07:23:10;;;;;;;5.80;3.40;;;;;;;8.47;58.70;98322.57;105471;1258;77111;-27
2024/03/26 07:33:17;;;;;;;4.90;2.50;;;;;;;9.63;54.92;98321.30;102642;1294;599989;-25
2024/03/26 07:35:44;;;;;;;4.20;2.00;;;;;;;9.34;54.23;98322.48;104847;1267;62695;-26
2024/03/26 07:38:12;;;;;;;3.50;1.90;;;;;;;9.55;54.69;98329.52;104812;1270;61837;-26
2024/03/26 07:40:40;;;;;;;2.30;1.70;;;;;;;9.89;52.70;98325.91;104799;1273;74246;-26
2024/03/26 07:43:08;;;;;;;1.90;1.50;;;;;;;9.81;52.63;98322.69;105058;1267;75601;-26
2024/03/26 07:45:47;;;;;;;4.50;2.70;;;;;;;9.45;53.27;98329.67;101448;1266;4610514;-27
2024/03/26 07:48:15;;;;;;;3.70;2.40;;;;;;;9.84;53.17;98327.39;104830;1265;61504;-26
2024/03/26 07:50:43;;;;;;;3.80;2.10;;;;;;;9.65;52.76;98333.56;105132;1270;62374;-27
2024/03/26 07:53:11;;;;;;;2.10;1.50;;;;;;;9.83;51.90;98335.66;105852;1257;75818;-27
2024/03/26 07:55:38;;;;;;;2.80;1.60;;;;;;;10.03;51.51;98333.66;105888;1257;77127;-26
2024/03/26 07:58:06;;;;;;;2.90;1.90;;;;;;;9.89;51.18;98332.48;105960;1254;75476;-27
2024/03/26 08:00:34;;;;;;;4.60;2.20;;;;;;;10.27;50.27;98335.94;105805;1255;61973;-27
2024/03/26 08:03:02;;;;;;;3.70;1.80;;;;;;;10.36;49.75;98339.21;105706;1257;61819;-26
2024/03/26 08:05:30;;;;;;;3.40;1.50;;;;;;;10.60;49.27;98342.91;105769;1254;77804;-26
2024/03/26 08:07:58;;;;;;;2.50;1.70;;;;;;;10.51;48.62;98347.23;105692;1257;77521;-26
2024/03/26 08:18:09;;;;;;;3.70;1.90;;;;;;;11.17;46.78;98359.70;102606;1295;600647;-26
2024/03/26 08:20:40;;;;;;;4.40;1.90;;;;;;;11.33;45.89;98357.02;104827;1267;62351;-26
2024/03/26 08:23:07;;;;;;;2.60;1.70;;;;;;;11.04;46.52;98358.50;104930;1270;62722;-28
2024/03/26 08:25:35;;;;;;;2.60;1.30;;;;;;;11.91;45.49;98358.94;104810;1275;77053;-26
2024/03/26 08:28:03;;;;;;;2.20;1.40;;;;;;;11.09;46.26;98355.75;104739;1271;74885;-26
2024/03/26 08:30:31;;;;;;;2.50;1.50;;;;;;;11.57;45.23;98358.14;105302;1258;75204;-26
2024/03/26 08:32:59;;;;;;;2.70;1.50;;;;;;;12.00;45.36;98358.37;101783;1260;61251;-26
2024/03/26 08:35:27;;;;;;;4.00;2.10;;;;;;;12.10;44.89;98360.92;105702;1258;74091;-26
2024/03/26 08:37:54;;;;;;;4.50;2.00;;;;;;;11.52;44.71;98361.77;105611;1261;75818;-26
2024/03/26 08:48:08;;;;;;;3.30;1.70;;;;;;;12.66;43.01;98367.39;102636;1294;601918;-25
2024/03/26 08:50:36;;;;;;;3.10;1.60;;;;;;;12.33;43.42;98363.89;104797;1267;62055;-25
2024/03/26 08:53:04;;;;;;;3.40;1.80;;;;;;;12.05;43.04;98364.83;104871;1270;61207;-25
2024/03/26 08:55:32;;;;;;;1.90;1.10;;;;;;;12.64;43.40;98367.38;104801;1272;75505;-26
2024/03/26 08:58:00;;;;;;;6.20;2.30;;;;;;;12.29;42.56;98366.31;104859;1267;75904;-26
2024/03/26 09:00:33;;;;;;;3.20;1.50;;;;;;;12.48;41.14;98364.42;104509;1272;4654349;-27
2024/03/26 09:03:01;;;;;;;1.90;1.00;;;;;;;12.75;41.00;98366.30;104876;1270;61103;-27
2024/03/26 09:05:28;;;;;;;3.40;1.60;;;;;;;12.52;39.60;98371.59;104843;1270;61186;-26
2024/03/26 09:07:58;;;;;;;2.60;1.30;;;;;;;12.87;39.95;98367.20;104904;1269;63037;-26
2024/03/26 09:10:26;;;;;;;26.80;11.30;;;;;;;12.38;40.65;98365.33;104858;1264;74837;-26
2024/03/26 09:12:54;;;;;;;2.30;1.40;;;;;;;12.91;41.02;98366.60;104824;1269;76479;-26
2024/03/26 09:15:22;;;;;;;4.00;1.80;;;;;;;13.13;39.78;98361.90;104826;1269;75455;-26
2024/03/26 09:17:52;;;;;;;1.70;1.30;;;;;;;12.60;40.58;98363.98;105227;1264;61269;-26
2024/03/26 09:20:19;;;;;;;4.70;1.40;;;;;;;13.13;40.42;98352.72;105383;1263;63222;-26
2024/03/26 09:22:47;;;;;;;4.10;1.40;;;;;;;13.32;39.32;98368.39;105281;1265;76603;-26
2024/03/26 09:25:15;;;;;;;3.70;1.60;;;;;;;14.11;36.07;98365.36;105087;1265;76482;-26
2024/03/26 09:27:43;;;;;;;2.10;1.40;;;;;;;13.97;37.15;98362.52;105143;1260;74311;-26
2024/03/26 09:30:13;;;;;;;12.40;2.30;;;;;;;13.77;37.69;98360.21;105369;1264;61890;-27
2024/03/26 09:33:59;;;;;;;2.00;1.20;;;;;;;14.46;36.75;98358.49;102623;1296;601110;-25
2024/03/26 09:36:26;;;;;;;2.50;1.60;;;;;;;15.26;36.00;98367.84;104893;1267;62300;-25
2024/03/26 09:38:54;;;;;;;8.00;3.90;;;;;;;14.93;34.50;98366.31;104809;1270;63993;-25
2024/03/26 09:41:36;;;;;;;17.10;6.60;;;;;;;14.64;33.39;98363.92;104841;1268;74858;-25
2024/03/26 09:44:04;;;;;;;3.20;1.80;;;;;;;14.25;34.49;98367.92;104831;1272;77571;-25
2024/03/26 09:46:34;;;;;;;3.90;2.00;;;;;;;14.40;33.54;98372.10;101317;1272;4736856;-26
2024/03/26 09:49:02;;;;;;;2.10;1.40;;;;;;;13.79;33.44;98369.13;104854;1270;63075;-25
2024/03/26 09:51:30;;;;;;;14.90;6.10;;;;;;;14.36;32.79;98369.38;104875;1264;61164;-25
2024/03/26 09:53:57;;;;;;;15.50;4.10;;;;;;;14.90;33.29;98369.88;104987;1269;74009;-25
2024/03/26 09:56:25;;;;;;;9.00;4.40;;;;;;;13.34;35.03;98373.05;105146;1264;76799;-25
2024/03/26 09:58:53;;;;;;;3.40;1.90;;;;;;;13.38;34.24;98374.50;105003;1267;75014;-25
2024/03/26 10:01:24;;;;;;;3.20;1.80;;;;;;;14.20;32.84;98373.48;104796;1264;61132;-25
2024/03/26 10:03:52;;;;;;;4.00;1.10;;;;;;;14.00;34.25;98371.58;104668;1271;61504;-25
2024/03/26 10:06:20;;;;;;;1.80;1.10;;;;;;;15.01;33.11;98368.04;104898;1264;75035;-25
2024/03/26 10:08:48;;;;;;;3.30;2.10;;;;;;;15.07;31.72;98366.48;104785;1264;75452;-25
2024/03/26 10:11:16;;;;;;;20.40;7.70;;;;;;;14.69;33.15;98364.80;104999;1269;74932;-25
2024/03/26 10:13:44;;;;;;;2.60;1.40;;;;;;;14.35;33.49;98368.02;104783;1273;61189;-25
2024/03/26 10:16:11;;;;;;;6.70;3.90;;;;;;;14.42;33.43;98366.44;104882;1264;62600;-26
2024/03/26 10:18:39;;;;;;;3.40;1.80;;;;;;;15.01;34.03;98366.70;105156;1269;75631;-26
2024/03/26 10:21:07;;;;;;;2.50;1.30;;;;;;;14.61;33.26;98370.98;104991;1270;75464;-26
2024/03/26 10:23:35;;;;;;;2.20;1.50;;;;;;;14.65;33.21;98364.45;104831;1272;74313;-26
2024/03/26 10:26:03;;;;;;;2.40;1.50;;;;;;;14.46;33.88;98368.89;104710;1267;62523;-26
2024/03/26 10:28:31;;;;;;;2.80;2.00;;;;;;;14.35;33.09;98367.90;104944;1264;61788;-26
2024/03/26 10:30:59;;;;;;;1.70;1.30;;;;;;;14.71;31.99;98375.02;105163;1260;76377;-26
2024/03/26 10:33:27;;;;;;;1.70;1.50;;;;;;;15.91;30.30;98371.05;105237;1261;78257;-26
2024/03/26 10:43:41;;;;;;;2.30;1.10;;;;;;;16.60;31.31;98374.62;102555;1293;600042;-26
2024/03/26 10:46:09;;;;;;;3.60;1.50;;;;;;;16.14;31.35;98375.94;104793;1270;62835;-25
2024/03/26 10:48:36;;;;;;;2.40;1.40;;;;;;;15.20;30.61;98376.46;104854;1267;61078;-26
2024/03/26 10:51:20;;;;;;;3.00;1.70;;;;;;;14.73;30.59;98371.50;104820;1271;75897;-27
2024/03/26 10:53:48;;;;;;;2.10;1.40;;;;;;;14.15;30.85;98372.27;104690;1267;76228;-26
2024/03/26 10:56:15;;;;;;;3.80;1.60;;;;;;;14.72;30.69;98371.91;101382;1267;4677876;-26
2024/03/26 10:58:43;;;;;;;11.20;5.50;;;;;;;14.15;32.63;98368.09;104706;1267;61223;-26
2024/03/26 11:01:11;;;;;;;12.10;6.70;;;;;;;15.65;31.66;98373.76;105068;1269;61715;-26
2024/03/26 11:03:38;;;;;;;3.50;2.20;;;;;;;15.32;32.00;98370.23;104823;1269;75222;-26
2024/03/26 11:06:07;;;;;;;1.70;1.50;;;;;;;14.34;32.86;98365.52;104821;1264;78330;-26
2024/03/26 11:08:44;;;;;;;4.40;1.20;;;;;;;13.50;34.32;98372.30;104964;1269;75541;-26
2024/03/26 11:11:18;;;;;;;5.30;1.80;;;;;;;13.95;32.91;98369.32;105293;1258;61623;-26
2024/03/26 11:13:54;;;;;;;3.20;1.80;;;;;;;13.97;32.24;98371.04;105389;1256;61829;-26
2024/03/26 11:16:32;;;;;;;2.00;1.20;;;;;;;14.91;31.33;98370.95;105287;1254;75781;-27
2024/03/26 11:19:19;;;;;;;1.50;0.90;;;;;;;15.67;30.90;98372.66;105658;1255;77230;-26
2024/03/26 11:21:48;;;;;;;1.40;1.10;;;;;;;16.11;30.01;98371.21;105527;1259;75350;-26
2024/03/26 11:24:29;;;;;;;1.90;1.40;;;;;;;16.44;29.64;98361.95;105565;1262;61692;-26
2024/03/26 11:26:58;;;;;;;3.70;1.40;;;;;;;16.17;30.41;98366.85;105680;1255;61090;-26
2024/03/26 11:29:26;;;;;;;2.90;1.00;;;;;;;14.87;31.38;98364.75;105643;1254;75729;-26
2024/03/26 11:31:55;;;;;;;1.80;1.20;;;;;;;14.98;30.19;98361.42;105428;1254;76460;-26
2024/03/26 11:34:24;;;;;;;2.20;1.20;;;;;;;15.76;28.80;98361.57;105686;1254;74954;-26
2024/03/26 11:36:52;;;;;;;1.40;1.00;;;;;;;15.89;28.68;98363.38;105592;1257;62929;-26
2024/03/26 11:39:22;;;;;;;1.60;1.00;;;;;;;16.32;27.82;98357.85;105598;1254;61514;-26
2024/03/26 11:41:54;;;;;;;1.90;0.90;;;;;;;16.32;28.53;98354.06;105575;1263;76112;-26
2024/03/26 11:44:21;;;;;;;2.60;1.10;;;;;;;16.17;29.32;98353.36;105318;1255;78461;-26
2024/03/26 11:46:49;;;;;;;2.60;1.20;;;;;;;15.92;29.39;98350.41;105632;1259;74538;-26
2024/03/26 11:49:17;;;;;;;2.20;1.20;;;;;;;15.07;30.56;98361.13;105720;1254;62839;-26
2024/03/26 11:51:44;;;;;;;1.90;1.20;;;;;;;15.25;30.30;98357.26;105666;1259;61477;-27
2024/03/26 11:54:12;;;;;;;1.70;1.10;;;;;;;15.35;30.63;98356.98;105649;1254;76552;-26
2024/03/26 11:56:40;;;;;;;2.80;1.00;;;;;;;15.57;30.71;98354.86;105482;1259;76026;-26
2024/03/26 11:59:07;;;;;;;2.00;1.10;;;;;;;15.65;29.38;98354.36;105640;1254;75172;-27
2024/03/26 12:01:35;;;;;;;1.30;0.80;;;;;;;15.71;29.50;98353.98;105705;1260;62095;-27
2024/03/26 12:04:03;;;;;;;2.30;0.90;;;;;;;15.65;29.97;98358.85;105650;1260;61887;-25
2024/03/26 12:06:32;;;;;;;1.70;1.10;;;;;;;15.60;30.94;98362.62;105649;1259;76411;-25
2024/03/26 12:08:59;;;;;;;2.40;1.40;;;;;;;14.99;32.59;98365.34;105622;1254;77195;-24
2024/03/26 12:11:27;;;;;;;3.40;1.50;;;;;;;13.69;34.20;98365.80;105633;1257;76613;-26
2024/03/26 12:13:55;;;;;;;3.90;2.00;;;;;;;13.51;34.44;98365.85;105629;1260;62995;-27
2024/03/26 12:16:27;;;;;;;3.60;1.40;;;;;;;14.28;32.32;98364.43;105631;1259;61802;-25
2024/03/26 12:18:55;;;;;;;3.40;2.10;;;;;;;14.38;32.50;98361.66;105697;1254;76095;-26
2024/03/26 12:21:26;;;;;;;2.80;1.60;;;;;;;14.39;32.48;98359.60;105739;1259;76244;-25
2024/03/26 12:23:54;;;;;;;1.60;1.20;;;;;;;14.44;30.34;98354.58;105694;1259;75345;-25
2024/03/26 12:26:22;;;;;;;2.40;1.50;;;;;;;15.28;29.65;98355.38;105661;1254;61514;-25
2024/03/26 12:28:50;;;;;;;2.40;1.60;;;;;;;15.12;28.40;98351.86;105552;1259;62138;-25
2024/03/26 12:31:17;;;;;;;4.20;3.70;;;;;;;15.04;29.27;98357.88;105589;1254;75936;-25
2024/03/26 12:33:47;;;;;;;2.30;1.50;;;;;;;15.77;27.92;98360.06;105564;1259;75870;-25
2024/03/26 12:36:15;;;;;;;2.80;1.20;;;;;;;15.60;29.76;98350.52;105339;1261;76487;-25
2024/03/26 12:38:42;;;;;;;1.90;1.20;;;;;;;15.46;30.37;98346.11;105680;1260;62800;-25
2024/03/26 12:41:10;;;;;;;1.00;0.90;;;;;;;14.86;31.01;98351.64;105667;1254;61833;-25
2024/03/26 12:43:39;;;;;;;2.10;1.30;;;;;;;14.84;31.12;98349.95;105647;1257;75139;-25
2024/03/26 12:46:06;;;;;;;3.10;1.50;;;;;;;14.64;32.59;98352.25;105433;1260;77233;-25
2024/03/26 12:48:34;;;;;;;1.60;1.10;;;;;;;14.32;32.27;98352.84;105588;1254;75098;-26
2024/03/26 12:51:02;;;;;;;2.10;1.30;;;;;;;14.34;31.90;98359.64;105629;1260;61720;-26
2024/03/26 12:53:29;;;;;;;3.40;1.60;;;;;;;14.55;30.81;98360.00;105494;1254;63113;-26
2024/03/26 12:55:57;;;;;;;1.30;1.10;;;;;;;14.70;30.62;98365.38;105541;1260;76430;-26
2024/03/26 12:58:25;;;;;;;1.10;1.00;;;;;;;15.21;30.47;98363.98;105608;1254;76615;-26
2024/03/26 13:00:53;;;;;;;2.30;1.00;;;;;;;15.43;30.45;98366.88;105723;1259;75202;-26
2024/03/26 13:03:21;;;;;;;2.30;1.30;;;;;;;15.11;31.12;98361.39;105713;1254;61942;-26
2024/03/26 13:05:49;;;;;;;1.30;1.10;;;;;;;15.00;31.22;98368.76;105694;1257;61851;-26
2024/03/26 13:08:17;;;;;;;2.30;1.10;;;;;;;15.14;31.02;98366.17;105675;1259;74349;-26
2024/03/26 13:10:45;;;;;;;1.40;1.10;;;;;;;15.08;31.01;98361.44;105666;1257;77103;-26
2024/03/26 13:13:13;;;;;;;2.40;1.00;;;;;;;14.91;31.26;98362.36;105635;1255;74404;-26
2024/03/26 13:15:43;;;;;;;1.70;1.00;;;;;;;15.11;30.66;98362.27;105630;1254;62898;-26
2024/03/26 13:18:11;;;;;;;1.20;1.10;;;;;;;14.96;30.54;98357.10;105685;1254;61451;-27
2024/03/26 13:20:40;;;;;;;1.50;1.20;;;;;;;15.07;30.29;98362.92;105652;1254;76049;-26
2024/03/26 13:23:08;;;;;;;1.60;1.00;;;;;;;15.07;30.31;98363.61;105737;1259;76119;-26
2024/03/26 13:25:35;;;;;;;1.50;1.00;;;;;;;15.15;30.84;98365.88;105649;1257;74183;-26
2024/03/26 13:28:04;;;;;;;2.00;0.90;;;;;;;15.20;30.81;98367.26;105711;1254;62860;-26
2024/03/26 13:30:31;;;;;;;2.00;1.20;;;;;;;15.15;31.65;98367.35;105697;1254;61727;-26
2024/03/26 13:33:11;;;;;;;1.20;0.90;;;;;;;14.85;31.27;98368.88;105717;1259;75558;-26
2024/03/26 13:35:38;;;;;;;2.50;1.20;;;;;;;14.77;29.28;98368.43;105624;1254;74954;-26
2024/03/26 13:38:06;;;;;;;1.30;0.90;;;;;;;14.18;31.54;98369.15;105664;1254;75187;-26
2024/03/26 13:40:34;;;;;;;2.00;1.20;;;;;;;14.37;31.74;98371.84;105474;1254;61986;-26
2024/03/26 13:43:19;;;;;;;1.40;0.90;;;;;;;14.81;31.02;98366.26;105656;1259;63911;-26
2024/03/26 13:45:49;;;;;;;2.60;1.50;;;;;;;14.67;30.95;98362.92;105684;1254;76134;-26
2024/03/26 13:48:17;;;;;;;1.10;0.90;;;;;;;14.56;30.14;98365.83;105691;1259;77457;-26
2024/03/26 13:50:45;;;;;;;1.10;0.90;;;;;;;14.69;29.49;98368.97;105528;1254;75313;-27
2024/03/26 13:53:13;;;;;;;90.10;6.50;;;;;;;14.63;29.33;98372.42;105666;1255;62691;-26
2024/03/26 13:55:42;;;;;;;1.30;0.90;;;;;;;14.38;30.29;98369.88;105693;1260;62781;-26
2024/03/26 13:58:10;;;;;;;1.30;0.90;;;;;;;13.87;31.30;98368.44;105744;1260;76748;-27
2024/03/26 14:00:42;;;;;;;1.30;1.00;;;;;;;14.15;30.64;98372.30;105709;1259;77097;-26
2024/03/26 14:03:10;;;;;;;2.00;1.10;;;;;;;14.19;31.09;98372.74;105606;1257;74989;-27
2024/03/26 14:05:38;;;;;;;2.30;1.00;;;;;;;14.26;31.57;98374.98;105665;1253;61801;-26
2024/03/26 14:08:06;;;;;;;2.30;1.30;;;;;;;14.57;30.23;98368.33;105651;1254;61507;-26
2024/03/26 14:10:34;;;;;;;24.00;3.00;;;;;;;14.37;29.87;98374.18;105747;1258;76681;-26
2024/03/26 14:13:01;;;;;;;1.30;0.90;;;;;;;14.51;29.08;98372.71;105656;1261;75564;-26
2024/03/26 14:15:29;;;;;;;1.20;1.10;;;;;;;14.54;29.58;98376.67;105669;1253;73547;-26
2024/03/26 14:17:57;;;;;;;1.80;1.10;;;;;;;14.33;30.16;98378.59;105644;1259;61135;-26
2024/03/26 14:20:26;;;;;;;2.50;0.90;;;;;;;14.30;30.18;98379.81;105677;1259;62413;-26
2024/03/26 14:22:54;;;;;;;1.90;1.10;;;;;;;14.35;29.74;98383.99;105726;1259;76687;-26
2024/03/26 14:25:22;;;;;;;3.30;1.20;;;;;;;14.45;30.15;98379.27;105719;1254;76639;-26
2024/03/26 14:27:49;;;;;;;1.30;1.00;;;;;;;14.59;30.04;98375.77;105690;1258;75560;-26
2024/03/26 14:30:18;;;;;;;1.10;1.00;;;;;;;14.60;29.85;98371.15;105688;1257;61188;-26
2024/03/26 14:32:46;;;;;;;2.30;1.20;;;;;;;14.47;29.68;98368.39;105674;1254;62577;-26
2024/03/26 14:35:13;;;;;;;1.50;1.10;;;;;;;14.45;30.87;98372.59;105694;1259;74543;-27
2024/03/26 14:37:46;;;;;;;2.20;1.30;;;;;;;14.30;30.37;98369.98;105660;1254;78435;-25
2024/03/26 14:40:15;;;;;;;1.30;1.00;;;;;;;14.37;31.28;98372.96;105693;1259;75141;-26
2024/03/26 14:42:42;;;;;;;2.50;1.10;;;;;;;14.53;30.78;98366.56;105721;1253;61447;-26
2024/03/26 14:45:12;;;;;;;1.40;0.80;;;;;;;14.70;30.05;98368.91;105619;1253;61144;-25